TimePST,TemperatureF,Dew PointF,Humidity,Sea Level PressureIn,VisibilityMPH,Wind Direction,Wind SpeedMPH,Gust SpeedMPH,PrecipitationIn,Events,Conditions,WindDirDegrees,DateUTC
12:58 AM,46.0,28.0,50,30.02,10.0,East,3.5,-,N/A,,Clear,80,2013-02-05 08:58:00
1:58 AM,44.1,28.0,53,30.01,10.0,West,2.3,-,N/A,,Clear,280,2013-02-05 09:58:00
2:58 AM,43.7,25.2,48,30.01,10.0,Calm,Calm,-,N/A,,Clear,0,2013-02-05 10:58:00
3:58 AM,40.8,27.0,58,30.02,10.0,NE,2.3,-,N/A,,Clear,40,2013-02-05 11:58:00
4:58 AM,40.8,27.1,58,30.03,10.0,Calm,Calm,-,N/A,,Clear,0,2013-02-05 12:58:00
5:58 AM,41.2,25.5,54,30.04,10.0,Calm,Calm,-,N/A,,Clear,0,2013-02-05 13:58:00
6:58 AM,38.7,26.6,62,30.05,10.0,Calm,Calm,-,N/A,,Clear,0,2013-02-05 14:58:00
7:58 AM,41.9,28.0,58,30.06,10.0,NE,1.2,-,N/A,,Clear,50,2013-02-05 15:58:00
8:58 AM,47.1,29.5,50,30.06,10.0,Calm,Calm,-,N/A,,Clear,0,2013-02-05 16:58:00
9:58 AM,53.2,27.9,38,30.05,10.0,Calm,Calm,-,N/A,,Clear,0,2013-02-05 17:58:00
10:58 AM,60.8,24.4,25,30.01,10.0,ENE,8.1,-,N/A,,Clear,70,2013-02-05 18:58:00
11:58 AM,63.7,24.4,22,29.99,10.0,East,6.9,-,N/A,,Clear,100,2013-02-05 19:58:00
12:58 PM,65.7,25.0,21,29.94,10.0,East,5.8,-,N/A,,Clear,80,2013-02-05 20:58:00
1:58 PM,66.4,24.8,21,29.91,10.0,East,5.8,-,N/A,,Clear,90,2013-02-05 21:58:00
2:58 PM,67.5,24.4,20,29.89,10.0,East,8.1,-,N/A,,Clear,90,2013-02-05 22:58:00
3:58 PM,66.9,26.2,22,29.88,10.0,ENE,10.4,-,N/A,,Clear,70,2013-02-05 23:58:00
4:58 PM,64.4,26.4,24,29.87,10.0,ENE,6.9,-,N/A,,Clear,60,2013-02-06 00:58:00
5:58 PM,60.6,27.5,28,29.86,10.0,ENE,4.6,-,N/A,,Clear,60,2013-02-06 01:58:00
6:58 PM,59.5,28.0,30,29.87,10.0,ENE,5.8,-,N/A,,Scattered Clouds,70,2013-02-06 02:58:00
7:58 PM,58.6,27.7,31,29.86,10.0,NE,8.1,-,N/A,,Overcast,40,2013-02-06 03:58:00
8:58 PM,57.4,28.2,33,29.86,10.0,NNE,8.1,-,N/A,,Scattered Clouds,30,2013-02-06 04:58:00
9:58 PM,57.6,28.9,34,29.84,10.0,NE,11.5,-,N/A,,Clear,50,2013-02-06 05:58:00
10:58 PM,55.2,30.2,38,29.84,10.0,NE,8.1,-,N/A,,Clear,40,2013-02-06 06:58:00
11:58 PM,55.2,30.2,38,29.83,10.0,ENE,8.1,-,N/A,,Clear,60,2013-02-06 07:58:00